createdAt,value
2022-12-08T00:00:00.526Z,986.3
2022-12-08T00:10:00.846Z,986.3
2022-12-08T00:20:00.446Z,986.2
2022-12-08T00:30:00.388Z,986.2
2022-12-08T00:40:00.558Z,986.2
2022-12-08T00:50:00.605Z,986.2
2022-12-08T01:00:00.553Z,986.3
2022-12-08T01:10:00.387Z,986.2
2022-12-08T01:20:00.399Z,986.1
2022-12-08T01:30:00.239Z,986.1
2022-12-08T01:40:00.238Z,986.2
2022-12-08T01:50:00.272Z,986.1
2022-12-08T02:00:00.267Z,986.1
2022-12-08T02:10:00.287Z,985.9
2022-12-08T02:20:00.271Z,985.9
2022-12-08T02:30:00.289Z,985.9
2022-12-08T02:40:00.232Z,986.0
2022-12-08T02:50:00.270Z,985.9
2022-12-08T03:00:00.240Z,985.7
2022-12-08T03:10:00.220Z,985.7
2022-12-08T03:20:00.233Z,985.6
2022-12-08T03:30:00.265Z,985.5
2022-12-08T03:40:00.266Z,985.5
2022-12-08T03:50:00.256Z,985.5
2022-12-08T04:00:00.265Z,985.6
2022-12-08T04:10:00.322Z,985.5
2022-12-08T04:20:00.526Z,985.4
2022-12-08T04:30:00.471Z,985.4
2022-12-08T04:40:00.611Z,985.4
2022-12-08T04:50:01.022Z,985.4
2022-12-08T05:00:00.338Z,985.3
2022-12-08T05:10:00.285Z,985.4
2022-12-08T05:20:00.250Z,985.4
2022-12-08T05:30:00.247Z,985.4
2022-12-08T05:40:00.261Z,985.4
2022-12-08T05:50:00.233Z,985.3
2022-12-08T06:00:00.248Z,985.2
2022-12-08T06:10:00.280Z,985.3
2022-12-08T06:20:00.264Z,985.4
2022-12-08T06:30:00.271Z,985.5
2022-12-08T06:40:00.236Z,985.5
2022-12-08T06:50:00.273Z,985.6
2022-12-08T07:00:00.319Z,985.5
2022-12-08T07:10:00.236Z,985.5
2022-12-08T07:20:00.256Z,985.6
2022-12-08T07:30:00.256Z,985.6
2022-12-08T07:40:00.252Z,985.4
2022-12-08T07:50:00.236Z,985.5
2022-12-08T08:00:00.314Z,985.4
2022-12-08T08:10:00.286Z,985.7
2022-12-08T08:20:00.233Z,985.5
2022-12-08T08:30:00.394Z,985.6
2022-12-08T08:40:00.467Z,985.5
2022-12-08T08:50:00.695Z,985.5
2022-12-08T09:00:00.410Z,985.4
2022-12-08T09:10:02.023Z,985.3
2022-12-08T09:20:00.585Z,985.2
2022-12-08T09:30:00.536Z,985.2
2022-12-08T09:40:00.545Z,985.0
2022-12-08T09:50:00.265Z,984.8
2022-12-08T10:00:00.246Z,984.9
2022-12-08T10:10:00.256Z,985.0
2022-12-08T10:20:00.240Z,985.0
2022-12-08T10:30:00.236Z,984.7
2022-12-08T10:40:00.261Z,984.6
2022-12-08T10:50:00.233Z,984.3
2022-12-08T11:00:00.246Z,984.2
2022-12-08T11:10:00.250Z,984.0
2022-12-08T11:20:00.244Z,983.8
2022-12-08T11:30:00.261Z,983.7
2022-12-08T11:40:00.253Z,983.6
2022-12-08T11:50:00.226Z,983.5
2022-12-08T12:00:00.278Z,983.3
2022-12-08T12:10:00.246Z,983.4
2022-12-08T12:20:00.248Z,983.3
2022-12-08T12:30:00.286Z,983.3
2022-12-08T12:40:00.438Z,983.4
2022-12-08T12:50:00.543Z,983.4
2022-12-08T13:00:00.732Z,983.3
2022-12-08T13:10:00.558Z,983.1
2022-12-08T13:20:00.591Z,983.2
2022-12-08T13:30:01.110Z,983.1
2022-12-08T13:40:01.029Z,983.0
2022-12-08T14:00:00.386Z,983.0
2022-12-08T14:10:00.337Z,983.0
2022-12-08T14:20:00.248Z,983.0
2022-12-08T14:30:00.272Z,983.0
2022-12-08T14:40:00.257Z,983.0
2022-12-08T14:50:00.248Z,983.1
2022-12-08T15:00:00.285Z,983.2
2022-12-08T15:10:00.225Z,982.8
2022-12-08T15:20:00.250Z,982.6
2022-12-08T15:30:00.250Z,982.6
2022-12-08T15:40:00.277Z,982.5
2022-12-08T15:50:00.250Z,982.4
2022-12-08T16:00:00.328Z,982.5
2022-12-08T16:10:00.522Z,982.8
2022-12-08T16:20:00.467Z,982.7
2022-12-08T16:30:00.250Z,982.8
2022-12-08T16:40:00.448Z,982.8
2022-12-08T16:50:00.247Z,982.8
2022-12-08T17:00:00.298Z,982.9
2022-12-08T17:10:00.240Z,982.7
2022-12-08T17:20:00.275Z,982.5
2022-12-08T17:30:00.280Z,982.2
2022-12-08T17:40:00.670Z,982.3
2022-12-08T17:50:00.459Z,982.3
2022-12-08T18:00:00.689Z,982.4
2022-12-08T18:10:00.908Z,982.5
2022-12-08T18:20:00.419Z,982.4
2022-12-08T18:30:00.361Z,982.4
2022-12-08T18:40:00.367Z,982.4
2022-12-08T18:50:00.249Z,982.4
2022-12-08T19:00:00.295Z,982.4
2022-12-08T19:10:00.254Z,982.3
2022-12-08T19:20:00.275Z,982.3
2022-12-08T19:30:00.369Z,982.2
2022-12-08T19:40:00.273Z,982.4
2022-12-08T19:50:00.258Z,982.4
2022-12-08T20:00:00.305Z,982.4
2022-12-08T20:10:00.230Z,982.2
2022-12-08T20:20:05.288Z,982.2
2022-12-08T20:30:00.298Z,982.1
2022-12-08T20:40:00.312Z,982.2
2022-12-08T20:50:00.320Z,982.3
2022-12-08T21:00:00.368Z,982.3
2022-12-08T21:10:00.304Z,982.3
2022-12-08T21:20:00.316Z,982.2
2022-12-08T21:30:00.382Z,982.3
2022-12-08T21:40:00.524Z,982.2
2022-12-08T21:50:00.636Z,982.1
2022-12-08T22:00:00.748Z,982.1
2022-12-08T22:10:00.832Z,982.1
2022-12-08T22:20:00.747Z,982.1
2022-12-08T22:30:00.773Z,982.2
2022-12-08T22:40:00.605Z,982.0
2022-12-08T22:50:00.419Z,982.0
2022-12-08T23:00:00.482Z,982.1
2022-12-08T23:10:00.450Z,982.1
2022-12-08T23:20:00.423Z,982.0
2022-12-08T23:30:00.411Z,982.0
2022-12-08T23:40:00.457Z,982.1
2022-12-08T23:50:00.336Z,981.9
